createdAt,value
2022-11-12T00:00:04.593Z,3.70
2022-11-12T00:02:50.021Z,4.07
2022-11-12T00:05:35.584Z,3.80
2022-11-12T00:08:21.180Z,5.45
2022-11-12T00:11:07.388Z,5.10
2022-11-12T00:13:52.680Z,4.35
2022-11-12T00:16:38.269Z,4.50
2022-11-12T00:19:23.668Z,3.83
2022-11-12T00:22:09.254Z,4.57
2022-11-12T00:24:54.610Z,5.22
2022-11-12T00:27:40.231Z,4.70
2022-11-12T00:30:25.816Z,4.43
2022-11-12T00:33:11.183Z,4.82
2022-11-12T00:35:59.796Z,4.65
2022-11-12T00:38:45.278Z,4.72
2022-11-12T00:41:30.758Z,4.63
2022-11-12T00:44:16.176Z,4.43
2022-11-12T00:47:01.645Z,5.03
2022-11-12T00:49:47.249Z,5.10
2022-11-12T00:52:32.686Z,5.15
2022-11-12T00:55:18.071Z,5.35
2022-11-12T00:58:03.541Z,5.03
2022-11-12T01:00:48.946Z,5.10
2022-11-12T01:03:34.627Z,4.97
2022-11-12T01:06:21.572Z,4.95
2022-11-12T01:09:07.433Z,5.57
2022-11-12T01:11:52.823Z,5.80
2022-11-12T01:14:38.225Z,5.05
2022-11-12T01:17:23.726Z,5.70
2022-11-12T01:20:09.497Z,5.32
2022-11-12T01:22:54.938Z,5.93
2022-11-12T01:25:40.409Z,5.70
2022-11-12T01:28:26.157Z,5.15
2022-11-12T01:31:16.276Z,6.22
2022-11-12T01:34:06.224Z,5.63
2022-11-12T01:36:52.025Z,5.70
2022-11-12T01:39:37.446Z,6.90
2022-11-12T01:42:25.758Z,6.15
2022-11-12T01:45:17.714Z,7.10
2022-11-12T01:48:03.007Z,6.88
2022-11-12T01:50:48.713Z,6.90
2022-11-12T01:53:36.326Z,7.30
2022-11-12T01:56:22.066Z,7.68
2022-11-12T01:59:23.338Z,7.38
2022-11-12T02:02:09.033Z,6.70
2022-11-12T02:04:54.675Z,6.93
2022-11-12T02:07:40.851Z,7.32
2022-11-12T02:10:26.239Z,6.88
2022-11-12T02:13:30.212Z,7.30
2022-11-12T02:16:15.757Z,6.20
2022-11-12T02:19:01.760Z,7.20
2022-11-12T02:21:47.241Z,7.85
2022-11-12T02:24:33.486Z,7.45
2022-11-12T02:27:18.697Z,7.55
2022-11-12T02:30:04.526Z,7.07
2022-11-12T02:32:50.028Z,7.00
2022-11-12T02:35:35.489Z,8.07
2022-11-12T02:38:20.989Z,7.63
2022-11-12T02:41:06.448Z,6.75
2022-11-12T02:43:51.839Z,6.95
2022-11-12T02:46:37.414Z,6.90
2022-11-12T02:49:22.902Z,6.68
2022-11-12T02:52:08.353Z,6.25
2022-11-12T02:54:53.807Z,6.97
2022-11-12T02:57:39.625Z,5.80
2022-11-12T03:00:24.900Z,6.20
2022-11-12T03:03:10.387Z,5.45
2022-11-12T03:06:05.403Z,5.45
2022-11-12T03:08:50.628Z,7.78
2022-11-12T03:11:36.201Z,5.90
2022-11-12T03:14:21.504Z,6.57
2022-11-12T03:17:07.037Z,5.80
2022-11-12T03:19:52.396Z,5.85
2022-11-12T03:22:38.277Z,4.50
2022-11-12T03:25:24.246Z,5.13
2022-11-12T03:28:13.522Z,5.00
2022-11-12T03:30:59.760Z,6.45
2022-11-12T03:33:45.041Z,5.82
2022-11-12T03:36:30.477Z,6.43
2022-11-12T03:39:15.997Z,6.30
2022-11-12T03:42:01.384Z,7.85
2022-11-12T03:44:46.952Z,8.05
2022-11-12T03:47:32.569Z,6.60
2022-11-12T03:50:18.597Z,6.43
2022-11-12T03:53:04.564Z,6.45
2022-11-12T03:55:49.910Z,6.88
2022-11-12T03:58:35.372Z,7.07
2022-11-12T04:01:20.904Z,8.07
2022-11-12T04:04:06.426Z,7.43
2022-11-12T04:07:10.358Z,8.18
2022-11-12T04:09:55.798Z,7.70
2022-11-12T04:12:59.829Z,5.85
2022-11-12T04:15:45.306Z,7.75
2022-11-12T04:18:51.034Z,8.15
2022-11-12T04:21:54.943Z,7.75
2022-11-12T04:25:00.454Z,7.07
2022-11-12T04:27:46.396Z,6.50
2022-11-12T04:30:31.933Z,6.80
2022-11-12T04:33:17.481Z,6.53
2022-11-12T04:36:03.120Z,7.15
2022-11-12T04:38:48.601Z,7.15
2022-11-12T04:41:52.621Z,6.35
2022-11-12T04:44:56.499Z,5.70
2022-11-12T04:47:44.002Z,6.65
2022-11-12T04:50:29.229Z,5.68
2022-11-12T04:53:14.735Z,7.60
2022-11-12T04:56:00.288Z,6.63
2022-11-12T04:58:45.649Z,6.38
2022-11-12T05:01:31.262Z,6.97
2022-11-12T05:04:16.676Z,6.80
2022-11-12T05:07:02.323Z,5.93
2022-11-12T05:09:47.785Z,6.80
2022-11-12T05:12:33.251Z,6.55
2022-11-12T05:15:18.913Z,6.63
2022-11-12T05:18:04.155Z,7.57
2022-11-12T05:20:52.801Z,6.28
2022-11-12T05:23:38.326Z,6.03
2022-11-12T05:26:23.773Z,6.80
2022-11-12T05:29:09.426Z,6.63
2022-11-12T05:31:55.087Z,7.32
2022-11-12T05:34:40.583Z,7.68
2022-11-12T05:37:26.203Z,6.50
2022-11-12T05:40:12.141Z,6.53
2022-11-12T05:42:57.731Z,5.78
2022-11-12T05:45:43.920Z,6.78
2022-11-12T05:48:29.978Z,6.78
2022-11-12T05:51:15.779Z,6.00
2022-11-12T05:54:01.474Z,6.15
2022-11-12T05:56:46.966Z,6.30
2022-11-12T05:59:32.388Z,6.20
2022-11-12T06:02:17.990Z,6.25
2022-11-12T06:05:03.719Z,6.72
2022-11-12T06:07:48.954Z,6.07
2022-11-12T06:10:34.664Z,7.65
2022-11-12T06:13:21.064Z,6.18
2022-11-12T06:16:06.766Z,6.30
2022-11-12T06:18:52.611Z,6.65
2022-11-12T06:21:38.109Z,6.03
2022-11-12T06:24:23.627Z,6.40
2022-11-12T06:27:09.074Z,6.85
2022-11-12T06:29:54.554Z,7.30
2022-11-12T06:32:40.022Z,6.45
2022-11-12T06:35:25.410Z,6.53
2022-11-12T06:38:11.198Z,7.13
2022-11-12T06:40:56.534Z,7.07
2022-11-12T06:43:42.178Z,8.15
2022-11-12T06:46:30.607Z,8.10
2022-11-12T06:49:16.242Z,6.85
2022-11-12T06:52:01.922Z,7.38
2022-11-12T06:54:47.480Z,6.13
2022-11-12T06:57:33.082Z,6.75
2022-11-12T07:00:19.097Z,6.20
2022-11-12T07:03:08.453Z,6.63
2022-11-12T07:05:53.889Z,6.97
2022-11-12T07:08:39.439Z,6.45
2022-11-12T07:11:24.918Z,6.32
2022-11-12T07:14:10.546Z,7.30
2022-11-12T07:16:56.169Z,7.63
2022-11-12T07:19:41.925Z,7.05
2022-11-12T07:22:27.274Z,6.18
2022-11-12T07:25:12.692Z,7.45
2022-11-12T07:27:58.342Z,8.80
2022-11-12T07:30:43.881Z,8.98
2022-11-12T07:33:29.390Z,7.35
2022-11-12T07:36:19.458Z,6.22
2022-11-12T07:39:05.108Z,6.55
2022-11-12T07:41:51.659Z,7.93
2022-11-12T07:44:37.197Z,7.32
2022-11-12T07:47:22.740Z,6.70
2022-11-12T07:50:08.509Z,6.93
2022-11-12T07:52:53.696Z,6.47
2022-11-12T07:55:39.164Z,6.78
2022-11-12T07:58:25.322Z,7.53
2022-11-12T08:01:13.574Z,8.45
2022-11-12T08:03:59.871Z,8.90
2022-11-12T08:06:45.305Z,6.55
2022-11-12T08:09:31.300Z,7.53
2022-11-12T08:12:17.139Z,6.90
2022-11-12T08:15:02.853Z,7.03
2022-11-12T08:17:48.310Z,7.18
2022-11-12T08:20:33.805Z,7.38
2022-11-12T08:23:19.517Z,6.90
2022-11-12T08:26:06.292Z,6.68
2022-11-12T08:28:51.602Z,6.53
2022-11-12T08:31:36.899Z,7.45
2022-11-12T08:34:22.947Z,6.47
2022-11-12T08:37:08.583Z,7.35
2022-11-12T08:39:54.013Z,7.28
2022-11-12T08:42:39.853Z,6.00
2022-11-12T08:45:25.197Z,6.60
2022-11-12T08:48:12.592Z,6.20
2022-11-12T08:50:58.492Z,6.75
2022-11-12T08:53:43.924Z,6.32
2022-11-12T08:56:29.439Z,7.18
2022-11-12T08:59:14.925Z,6.40
2022-11-12T09:02:00.408Z,6.70
2022-11-12T09:04:45.850Z,6.93
2022-11-12T09:10:37.470Z,6.60
2022-11-12T09:13:22.813Z,6.50
2022-11-12T09:16:09.697Z,6.68
2022-11-12T09:18:55.260Z,6.90
2022-11-12T09:21:40.904Z,6.53
2022-11-12T09:24:26.261Z,6.70
2022-11-12T09:27:11.822Z,6.85
2022-11-12T09:29:57.146Z,6.75
2022-11-12T09:32:42.740Z,6.90
2022-11-12T09:35:28.292Z,6.60
2022-11-12T09:38:17.946Z,7.05
2022-11-12T09:41:26.174Z,6.00
2022-11-12T09:44:19.557Z,5.93
2022-11-12T09:47:15.673Z,6.35
2022-11-12T09:50:20.142Z,6.47
2022-11-12T09:53:31.691Z,5.97
2022-11-12T09:56:16.959Z,5.60
2022-11-12T09:59:02.176Z,5.50
2022-11-12T10:01:53.854Z,6.72
2022-11-12T10:05:09.703Z,6.43
2022-11-12T10:08:32.985Z,6.22
2022-11-12T10:11:24.349Z,6.53
2022-11-12T10:14:18.617Z,7.13
2022-11-12T10:17:06.863Z,5.68
2022-11-12T10:20:17.351Z,5.60
2022-11-12T10:23:14.785Z,6.47
2022-11-12T10:26:00.620Z,6.57
2022-11-12T10:28:58.073Z,7.30
2022-11-12T10:31:43.376Z,6.78
2022-11-12T10:34:28.938Z,6.13
2022-11-12T10:37:50.817Z,6.40
2022-11-12T10:40:37.947Z,6.20
2022-11-12T10:43:24.358Z,6.10
2022-11-12T10:46:24.108Z,6.10
2022-11-12T10:49:15.307Z,6.30
2022-11-12T10:52:00.964Z,5.70
2022-11-12T10:54:50.987Z,5.97
2022-11-12T10:57:39.268Z,6.07
2022-11-12T11:00:25.061Z,5.85
2022-11-12T11:03:19.932Z,5.68
2022-11-12T11:06:21.616Z,6.38
2022-11-12T11:09:13.175Z,5.93
2022-11-12T11:11:58.636Z,5.75
2022-11-12T11:14:44.741Z,6.30
2022-11-12T11:17:30.125Z,5.97
2022-11-12T11:20:36.078Z,5.57
2022-11-12T11:23:37.381Z,5.00
2022-11-12T11:26:41.637Z,5.10
2022-11-12T11:29:51.776Z,5.72
2022-11-12T11:33:01.092Z,6.00
2022-11-12T11:35:46.358Z,6.10
2022-11-12T11:38:56.641Z,5.38
2022-11-12T11:41:47.859Z,4.93
2022-11-12T11:44:46.849Z,5.80
2022-11-12T11:48:22.168Z,6.05
2022-11-12T11:51:26.289Z,6.00
2022-11-12T11:54:49.318Z,5.45
2022-11-12T11:57:44.424Z,5.60
2022-11-12T12:00:35.482Z,5.97
2022-11-12T12:03:27.178Z,5.55
2022-11-12T12:06:20.336Z,5.53
2022-11-12T12:09:43.427Z,5.90
2022-11-12T12:12:37.632Z,5.93
2022-11-12T12:15:47.133Z,5.45
2022-11-12T12:18:59.350Z,5.97
2022-11-12T12:21:46.571Z,5.95
2022-11-12T12:24:50.623Z,5.35
2022-11-12T12:27:38.645Z,6.28
2022-11-12T12:30:25.075Z,5.25
2022-11-12T12:33:41.525Z,5.57
2022-11-12T12:36:38.316Z,5.80
2022-11-12T12:39:43.578Z,5.70
2022-11-12T12:42:44.936Z,6.45
2022-11-12T12:45:44.301Z,6.22
2022-11-12T12:48:38.080Z,5.28
2022-11-12T12:51:23.602Z,5.22
2022-11-12T12:54:37.318Z,5.78
2022-11-12T12:57:32.810Z,4.85
2022-11-12T13:00:25.123Z,4.82
2022-11-12T13:03:11.057Z,4.65
2022-11-12T13:06:16.367Z,5.00
2022-11-12T13:09:07.141Z,5.30
2022-11-12T13:12:06.184Z,4.50
2022-11-12T13:14:54.309Z,4.00
2022-11-12T13:17:45.058Z,4.60
2022-11-12T13:20:35.940Z,4.55
2022-11-12T13:24:03.426Z,4.90
2022-11-12T13:26:56.790Z,4.55
2022-11-12T13:29:43.401Z,4.78
2022-11-12T13:32:52.869Z,4.68
2022-11-12T13:35:38.742Z,4.82
2022-11-12T13:38:24.313Z,4.50
2022-11-12T13:41:12.721Z,4.32
2022-11-12T13:43:58.199Z,4.10
2022-11-12T13:46:43.485Z,4.45
2022-11-12T13:49:29.169Z,4.30
2022-11-12T13:52:15.335Z,4.50
2022-11-12T13:55:02.381Z,4.35
2022-11-12T13:57:54.653Z,4.20
2022-11-12T14:00:40.162Z,4.30
2022-11-12T14:03:28.677Z,4.25
2022-11-12T14:06:27.626Z,4.55
2022-11-12T14:09:25.093Z,4.13
2022-11-12T14:12:55.202Z,4.03
2022-11-12T14:16:01.736Z,3.90
2022-11-12T14:19:02.405Z,4.15
2022-11-12T14:22:15.997Z,4.60
2022-11-12T14:25:01.741Z,4.20
2022-11-12T14:27:50.931Z,3.42
2022-11-12T14:30:43.584Z,3.90
2022-11-12T14:33:30.030Z,4.53
2022-11-12T14:36:15.824Z,4.20
2022-11-12T14:39:01.285Z,4.88
2022-11-12T14:41:47.788Z,3.95
2022-11-12T14:44:34.802Z,4.85
2022-11-12T14:47:20.362Z,4.82
2022-11-12T14:50:06.197Z,4.80
2022-11-12T14:52:56.205Z,5.05
2022-11-12T14:55:42.204Z,5.05
2022-11-12T14:58:28.571Z,5.60
2022-11-12T15:01:45.061Z,5.70
2022-11-12T15:04:27.349Z,5.45
2022-11-12T15:07:31.148Z,4.72
2022-11-12T15:10:30.002Z,5.95
2022-11-12T15:13:16.678Z,5.57
2022-11-12T15:16:07.480Z,5.88
2022-11-12T15:19:08.232Z,5.90
2022-11-12T15:21:55.715Z,6.68
2022-11-12T15:24:43.991Z,5.68
2022-11-12T15:27:36.413Z,5.63
2022-11-12T15:30:23.781Z,6.18
2022-11-12T15:33:12.375Z,5.97
2022-11-12T15:35:58.869Z,6.28
2022-11-12T15:38:48.807Z,6.10
2022-11-12T15:41:34.105Z,6.07
2022-11-12T15:44:19.550Z,6.47
2022-11-12T15:47:05.165Z,6.28
2022-11-12T15:49:51.651Z,5.93
2022-11-12T15:52:37.080Z,5.82
2022-11-12T15:55:22.306Z,7.80
2022-11-12T15:58:12.040Z,8.63
2022-11-12T16:00:57.249Z,10.55
2022-11-12T16:03:42.766Z,11.48
2022-11-12T16:06:29.637Z,11.13
2022-11-12T16:09:14.907Z,11.45
2022-11-12T16:12:00.903Z,11.88
2022-11-12T16:14:46.249Z,9.73
2022-11-12T16:17:31.719Z,9.48
2022-11-12T16:20:21.328Z,8.10
2022-11-12T16:23:06.793Z,8.07
2022-11-12T16:25:52.369Z,7.70
2022-11-12T16:28:37.856Z,8.20
2022-11-12T16:31:25.061Z,7.72
2022-11-12T16:34:11.295Z,7.97
2022-11-12T16:36:57.018Z,7.07
2022-11-12T16:39:42.461Z,6.97
2022-11-12T16:42:27.929Z,6.85
2022-11-12T16:45:17.893Z,7.00
2022-11-12T16:48:03.565Z,8.80
2022-11-12T16:50:48.981Z,6.57
2022-11-12T16:53:34.418Z,6.78
2022-11-12T16:56:20.949Z,7.75
2022-11-12T16:59:06.469Z,7.32
2022-11-12T17:01:51.754Z,6.95
2022-11-12T17:04:37.209Z,7.45
2022-11-12T17:07:22.765Z,7.93
2022-11-12T17:10:08.825Z,7.90
2022-11-12T17:12:54.322Z,6.80
2022-11-12T17:15:40.283Z,6.95
2022-11-12T17:18:26.070Z,6.75
2022-11-12T17:21:16.163Z,6.57
2022-11-12T17:26:47.248Z,6.72
2022-11-12T17:29:32.769Z,6.85
2022-11-12T17:32:18.058Z,7.32
2022-11-12T17:35:03.745Z,8.52
2022-11-12T17:37:49.212Z,7.60
2022-11-12T17:40:34.655Z,8.18
2022-11-12T17:43:20.119Z,6.88
2022-11-12T17:46:09.380Z,7.22
2022-11-12T17:48:55.001Z,6.97
2022-11-12T17:51:40.365Z,8.93
2022-11-12T17:54:25.681Z,8.45
2022-11-12T17:57:11.034Z,7.50
2022-11-12T17:59:56.481Z,8.50
2022-11-12T18:02:41.947Z,8.57
2022-11-12T18:05:27.467Z,8.43
2022-11-12T18:08:13.397Z,8.82
2022-11-12T18:10:58.635Z,9.15
2022-11-12T18:13:44.268Z,9.68
2022-11-12T18:16:29.895Z,7.82
2022-11-12T18:19:15.769Z,8.38
2022-11-12T18:22:02.510Z,9.77
2022-11-12T18:24:48.158Z,9.35
2022-11-12T18:27:33.686Z,9.18
2022-11-12T18:30:19.766Z,9.93
2022-11-12T18:33:05.192Z,9.65
2022-11-12T18:36:07.132Z,9.30
2022-11-12T18:38:53.096Z,8.82
2022-11-12T18:41:38.583Z,8.85
2022-11-12T18:44:26.138Z,9.20
2022-11-12T18:47:12.486Z,10.40
2022-11-12T18:49:57.913Z,9.93
2022-11-12T18:52:43.650Z,10.25
2022-11-12T18:55:28.789Z,11.18
2022-11-12T18:58:14.440Z,11.25
2022-11-12T19:01:08.796Z,10.25
2022-11-12T19:03:55.127Z,9.95
2022-11-12T19:06:40.653Z,10.95
2022-11-12T19:09:26.049Z,9.13
2022-11-12T19:12:11.483Z,9.57
2022-11-12T19:14:56.863Z,8.82
2022-11-12T19:17:42.906Z,9.55
2022-11-12T19:20:29.157Z,10.20
2022-11-12T19:23:14.786Z,9.50
2022-11-12T19:26:01.213Z,9.32
2022-11-12T19:28:46.868Z,8.38
2022-11-12T19:31:34.531Z,8.60
2022-11-12T19:34:20.296Z,8.02
2022-11-12T19:37:31.937Z,8.68
2022-11-12T19:40:12.294Z,7.53
2022-11-12T19:42:57.693Z,7.70
2022-11-12T19:45:43.168Z,7.72
2022-11-12T19:48:29.250Z,7.30
2022-11-12T19:51:15.191Z,6.78
2022-11-12T19:54:00.469Z,7.50
2022-11-12T19:56:45.892Z,8.98
2022-11-12T19:59:31.128Z,8.05
2022-11-12T20:02:16.771Z,7.60
2022-11-12T20:05:02.614Z,8.82
2022-11-12T20:07:48.896Z,7.57
2022-11-12T20:10:34.774Z,7.47
2022-11-12T20:13:20.364Z,8.23
2022-11-12T20:16:10.225Z,8.02
2022-11-12T20:18:55.883Z,7.93
2022-11-12T20:21:40.906Z,7.38
2022-11-12T20:24:26.342Z,8.38
2022-11-12T20:27:11.923Z,8.57
2022-11-12T20:29:57.124Z,7.82
2022-11-12T20:32:42.509Z,7.68
2022-11-12T20:35:28.077Z,9.30
2022-11-12T20:38:13.642Z,8.75
2022-11-12T20:41:04.643Z,9.05
2022-11-12T20:43:54.081Z,9.13
2022-11-12T20:46:39.429Z,9.98
2022-11-12T20:49:25.004Z,9.48
2022-11-12T20:52:10.130Z,9.85
2022-11-12T20:54:55.792Z,8.30
2022-11-12T20:57:41.495Z,7.53
2022-11-12T21:00:27.236Z,9.70
2022-11-12T21:03:12.670Z,8.70
2022-11-12T21:06:02.225Z,7.82
2022-11-12T21:08:47.789Z,9.75
2022-11-12T21:11:33.226Z,9.48
2022-11-12T21:14:18.876Z,9.70
2022-11-12T21:17:04.398Z,8.43
2022-11-12T21:19:49.759Z,9.65
2022-11-12T21:22:35.347Z,9.55
2022-11-12T21:25:20.885Z,8.15
2022-11-12T21:28:06.469Z,10.45
2022-11-12T21:30:52.723Z,9.63
2022-11-12T21:33:38.365Z,9.50
2022-11-12T21:36:24.157Z,8.82
2022-11-12T21:39:10.185Z,9.75
2022-11-12T21:41:55.403Z,12.77
2022-11-12T21:44:40.990Z,10.30
2022-11-12T21:47:26.490Z,10.43
2022-11-12T21:50:12.075Z,11.45
2022-11-12T21:52:57.649Z,9.50
2022-11-12T21:55:42.932Z,9.10
2022-11-12T21:58:29.747Z,9.93
2022-11-12T22:01:25.035Z,8.77
2022-11-12T22:04:15.477Z,9.88
2022-11-12T22:07:03.793Z,10.88
2022-11-12T22:09:53.816Z,12.05
2022-11-12T22:12:53.691Z,10.85
2022-11-12T22:15:47.498Z,11.52
2022-11-12T22:18:34.334Z,11.32
2022-11-12T22:21:24.168Z,13.88
2022-11-12T22:24:10.919Z,11.25
2022-11-12T22:26:57.317Z,12.90
2022-11-12T22:29:44.136Z,11.38
2022-11-12T22:32:29.771Z,11.30
2022-11-12T22:35:15.453Z,9.75
2022-11-12T22:38:01.056Z,11.15
2022-11-12T22:40:46.620Z,11.60
2022-11-12T22:43:32.831Z,13.52
2022-11-12T22:46:21.043Z,10.57
2022-11-12T22:49:06.463Z,9.77
2022-11-12T22:51:51.664Z,11.05
2022-11-12T22:54:37.144Z,10.73
2022-11-12T22:57:22.590Z,11.43
2022-11-12T23:00:09.585Z,11.30
2022-11-12T23:02:54.980Z,12.52
2022-11-12T23:05:42.582Z,9.13
2022-11-12T23:08:28.499Z,10.20
2022-11-12T23:11:16.171Z,11.02
2022-11-12T23:14:01.705Z,11.52
2022-11-12T23:16:47.198Z,10.30
2022-11-12T23:19:32.618Z,9.93
2022-11-12T23:22:18.153Z,8.88
2022-11-12T23:25:03.725Z,9.40
2022-11-12T23:27:49.255Z,11.73
2022-11-12T23:30:35.598Z,8.93
2022-11-12T23:33:20.869Z,9.27
2022-11-12T23:36:10.068Z,9.05
2022-11-12T23:38:55.972Z,8.77
2022-11-12T23:41:41.444Z,9.43
2022-11-12T23:44:27.011Z,8.77
2022-11-12T23:47:12.464Z,8.95
2022-11-12T23:49:58.039Z,9.52
2022-11-12T23:52:43.717Z,9.20
2022-11-12T23:55:29.520Z,10.02
2022-11-12T23:58:15.664Z,9.90
